createdAt,value
2023-01-19T00:00:56.591Z,99657.97
2023-01-19T00:03:23.514Z,99653.63
2023-01-19T00:05:50.366Z,99656.16
2023-01-19T00:08:17.643Z,99646.84
2023-01-19T00:10:51.288Z,99643.44
2023-01-19T00:13:18.591Z,99639.19
2023-01-19T00:15:45.433Z,99638.44
2023-01-19T00:18:14.471Z,99646.97
2023-01-19T00:20:41.531Z,99645.31
2023-01-19T00:23:09.593Z,99647.06
2023-01-19T00:25:42.555Z,99648.06
2023-01-19T00:28:14.194Z,99645.47
2023-01-19T00:30:42.183Z,99644.63
2023-01-19T00:33:10.265Z,99642.13
2023-01-19T00:35:37.149Z,99633.66
2023-01-19T00:38:04.026Z,99629.41
2023-01-19T00:40:30.878Z,99635.44
2023-01-19T00:42:58.225Z,99633.69
2023-01-19T00:45:25.457Z,99634.56
2023-01-19T00:47:57.237Z,99629.50
2023-01-19T00:50:25.921Z,99627.88
2023-01-19T00:52:54.198Z,99625.41
2023-01-19T00:55:21.732Z,99627.13
2023-01-19T00:57:49.033Z,99627.97
2023-01-19T01:00:19.846Z,99635.56
2023-01-19T01:02:48.158Z,99640.72
2023-01-19T01:05:15.430Z,99638.09
2023-01-19T01:07:44.519Z,99633.06
2023-01-19T01:10:14.790Z,99643.25
2023-01-19T01:12:42.159Z,99635.56
2023-01-19T01:15:23.414Z,99618.53
2023-01-19T01:17:53.056Z,99620.28
2023-01-19T01:20:27.114Z,99623.88
2023-01-19T01:22:54.389Z,99640.97
2023-01-19T01:25:23.621Z,99664.69
2023-01-19T01:27:50.706Z,99695.03
2023-01-19T01:30:17.683Z,99689.03
2023-01-19T01:32:44.652Z,99743.06
2023-01-19T01:35:12.591Z,99736.03
2023-01-19T01:37:40.620Z,99730.81
2023-01-19T01:40:08.031Z,99758.53
2023-01-19T01:42:34.966Z,99769.16
2023-01-19T01:45:22.229Z,99787.44
2023-01-19T01:47:50.570Z,99795.75
2023-01-19T01:50:26.780Z,99809.44
2023-01-19T01:53:06.480Z,99811.31
2023-01-19T01:55:38.372Z,99812.38
2023-01-19T01:58:07.541Z,99820.59
2023-01-19T02:00:54.419Z,99809.63
2023-01-19T02:03:24.760Z,99809.88
2023-01-19T02:05:53.700Z,99811.59
2023-01-19T02:08:52.983Z,99817.28
2023-01-19T02:11:38.747Z,99827.19
2023-01-19T02:14:06.375Z,99838.94
2023-01-19T02:16:35.045Z,99832.41
2023-01-19T02:19:01.947Z,99829.09
2023-01-19T02:21:43.070Z,99836.78
2023-01-19T02:24:10.973Z,99842.31
2023-01-19T02:26:44.397Z,99833.19
2023-01-19T02:29:17.993Z,99837.38
2023-01-19T02:31:48.194Z,99824.59
2023-01-19T02:34:17.952Z,99814.41
2023-01-19T02:36:52.787Z,99809.34
2023-01-19T02:39:27.093Z,99799.94
2023-01-19T02:41:59.311Z,99796.34
2023-01-19T02:44:27.794Z,99756.66
2023-01-19T02:46:57.341Z,99698.84
2023-01-19T02:49:27.609Z,99710.75
2023-01-19T02:51:54.737Z,99733.75
2023-01-19T02:54:33.817Z,99730.09
2023-01-19T02:57:32.304Z,99718.81
2023-01-19T03:00:01.876Z,99719.16
2023-01-19T03:02:44.204Z,99731.22
2023-01-19T03:05:17.428Z,99732.41
2023-01-19T03:08:25.152Z,99738.63
2023-01-19T03:11:00.789Z,99740.31
2023-01-19T03:13:52.113Z,99741.72
2023-01-19T03:16:28.020Z,99739.09
2023-01-19T03:18:58.360Z,99742.63
2023-01-19T03:21:27.752Z,99743.28
2023-01-19T03:24:00.464Z,99745.59
2023-01-19T03:26:30.893Z,99743.34
2023-01-19T03:29:02.682Z,99754.22
2023-01-19T03:31:33.275Z,99747.72
2023-01-19T03:34:06.803Z,99745.25
2023-01-19T03:36:49.196Z,99747.13
2023-01-19T03:39:23.018Z,99744.59
2023-01-19T03:41:59.925Z,99748.13
2023-01-19T03:44:29.183Z,99749.03
2023-01-19T03:46:58.500Z,99744.75
2023-01-19T03:49:25.957Z,99738.88
2023-01-19T03:51:55.832Z,99742.56
2023-01-19T03:54:23.086Z,99737.72
2023-01-19T03:56:49.792Z,99741.03
2023-01-19T03:59:17.619Z,99758.09
2023-01-19T04:01:44.625Z,99744.50
2023-01-19T04:04:11.683Z,99743.47
2023-01-19T04:06:38.724Z,99749.81
2023-01-19T04:09:06.054Z,99744.56
2023-01-19T04:11:32.777Z,99747.88
2023-01-19T04:13:59.714Z,99752.13
2023-01-19T04:16:26.500Z,99747.28
2023-01-19T04:18:53.543Z,99729.19
2023-01-19T04:21:22.829Z,99737.47
2023-01-19T04:23:50.378Z,99724.34
2023-01-19T04:26:17.103Z,99729.81
2023-01-19T04:28:43.786Z,99739.50
2023-01-19T04:31:10.856Z,99758.31
2023-01-19T04:33:37.733Z,99772.78
2023-01-19T04:36:04.835Z,99773.63
2023-01-19T04:38:31.830Z,99768.84
2023-01-19T04:40:58.584Z,99773.41
2023-01-19T04:43:25.413Z,99770.41
2023-01-19T04:45:52.316Z,99768.16
2023-01-19T04:48:19.689Z,99765.53
2023-01-19T04:50:47.338Z,99772.31
2023-01-19T04:53:14.599Z,99773.28
2023-01-19T04:55:41.337Z,99772.31
2023-01-19T04:58:08.416Z,99771.28
2023-01-19T05:00:35.623Z,99762.94
2023-01-19T05:03:02.807Z,99764.97
2023-01-19T05:05:29.947Z,99758.56
2023-01-19T05:07:56.841Z,99767.34
2023-01-19T05:10:23.978Z,99765.91
2023-01-19T05:12:51.320Z,99769.53
2023-01-19T05:15:18.100Z,99761.34
2023-01-19T05:17:45.218Z,99753.94
2023-01-19T05:20:15.685Z,99755.03
2023-01-19T05:22:43.414Z,99762.81
2023-01-19T05:25:10.227Z,99765.50
2023-01-19T05:27:38.745Z,99767.34
2023-01-19T05:30:06.537Z,99778.41
2023-01-19T05:32:33.370Z,99783.56
2023-01-19T05:35:00.200Z,99781.16
2023-01-19T05:37:27.050Z,99784.50
2023-01-19T05:39:54.219Z,99811.16
2023-01-19T05:42:21.273Z,99817.38
2023-01-19T05:44:48.037Z,99819.13
2023-01-19T05:47:15.029Z,99829.53
2023-01-19T05:49:41.831Z,99840.16
2023-01-19T05:52:08.667Z,99850.72
2023-01-19T05:54:35.617Z,99857.28
2023-01-19T05:57:03.131Z,99851.06
2023-01-19T05:59:29.913Z,99870.59
2023-01-19T06:01:57.243Z,99883.34
2023-01-19T06:04:24.152Z,99889.63
2023-01-19T06:06:51.607Z,99883.97
2023-01-19T06:09:18.652Z,99891.75
2023-01-19T06:11:46.420Z,99905.47
2023-01-19T06:14:13.704Z,99908.47
2023-01-19T06:16:40.904Z,99910.25
2023-01-19T06:19:07.690Z,99920.47
2023-01-19T06:21:34.540Z,99924.75
2023-01-19T06:24:01.397Z,99937.28
2023-01-19T06:26:28.256Z,99943.50
2023-01-19T06:28:55.395Z,99951.88
2023-01-19T06:31:22.550Z,99949.34
2023-01-19T06:33:49.948Z,99963.72
2023-01-19T06:36:16.727Z,99973.81
2023-01-19T06:38:44.003Z,99961.66
2023-01-19T06:41:12.463Z,99970.22
2023-01-19T06:43:39.296Z,99965.06
2023-01-19T06:46:06.240Z,99968.41
2023-01-19T06:48:33.083Z,99966.63
2023-01-19T06:51:00.038Z,99976.63
2023-01-19T06:53:28.442Z,99966.44
2023-01-19T06:55:59.763Z,99976.78
2023-01-19T06:58:28.375Z,99974.94
2023-01-19T07:00:56.335Z,99990.84
2023-01-19T07:03:23.827Z,99992.34
2023-01-19T07:05:53.753Z,99986.56
2023-01-19T07:08:20.887Z,100002.84
2023-01-19T07:11:25.674Z,99999.41
2023-01-19T07:13:35.923Z,100000.41
2023-01-19T07:16:11.852Z,100002.03
2023-01-19T07:18:39.894Z,99996.19
2023-01-19T07:21:07.318Z,99989.47
2023-01-19T07:23:35.089Z,99992.09
2023-01-19T07:26:02.010Z,99997.22
2023-01-19T07:28:29.616Z,100005.75
2023-01-19T07:30:57.068Z,100004.88
2023-01-19T07:33:25.077Z,100009.31
2023-01-19T07:35:52.628Z,100010.22
2023-01-19T07:38:20.395Z,100023.63
2023-01-19T07:40:47.307Z,100018.56
2023-01-19T07:43:15.028Z,100027.22
2023-01-19T07:45:43.190Z,100013.66
2023-01-19T07:48:10.027Z,100014.63
2023-01-19T07:50:36.826Z,100045.31
2023-01-19T07:53:08.603Z,100081.63
2023-01-19T07:55:35.943Z,100104.59
2023-01-19T07:58:06.643Z,100114.47
2023-01-19T08:00:35.367Z,100105.72
2023-01-19T08:03:03.750Z,100093.78
2023-01-19T08:05:31.667Z,100087.59
2023-01-19T08:07:59.021Z,100108.19
2023-01-19T08:10:27.412Z,100114.59
2023-01-19T08:12:55.263Z,100110.59
2023-01-19T08:15:24.208Z,100101.69
2023-01-19T08:17:59.050Z,100108.66
2023-01-19T08:20:27.123Z,100098.69
2023-01-19T08:23:01.623Z,100096.16
2023-01-19T08:25:37.408Z,100106.28
2023-01-19T08:28:06.493Z,100120.31
2023-01-19T08:30:33.521Z,100117.63
2023-01-19T08:33:08.380Z,100109.28
2023-01-19T08:35:43.329Z,100107.97
2023-01-19T08:38:11.148Z,100106.97
2023-01-19T08:40:40.431Z,100111.47
2023-01-19T08:43:09.963Z,100106.28
2023-01-19T08:45:48.185Z,100115.56
2023-01-19T08:48:17.295Z,100121.91
2023-01-19T08:50:46.228Z,100115.66
2023-01-19T08:53:13.633Z,100116.78
2023-01-19T08:55:40.851Z,100105.16
2023-01-19T08:58:08.956Z,100118.03
2023-01-19T09:00:41.109Z,100119.13
2023-01-19T09:03:11.475Z,100113.41
2023-01-19T09:05:38.874Z,100106.44
2023-01-19T09:08:09.411Z,100115.13
2023-01-19T09:10:38.115Z,100112.03
2023-01-19T09:13:08.353Z,100107.34
2023-01-19T09:15:37.697Z,100103.16
2023-01-19T09:18:07.259Z,100106.84
2023-01-19T09:20:36.179Z,100103.72
2023-01-19T09:23:03.267Z,100099.06
2023-01-19T09:25:30.105Z,100100.31
2023-01-19T09:27:56.928Z,100103.28
2023-01-19T09:30:23.679Z,100091.91
2023-01-19T09:32:50.609Z,100083.81
2023-01-19T09:35:17.516Z,100074.06
2023-01-19T09:37:47.926Z,100070.31
2023-01-19T09:40:15.918Z,100073.94
2023-01-19T09:42:47.349Z,100068.22
2023-01-19T09:45:36.128Z,100060.91
2023-01-19T09:48:13.374Z,100067.19
2023-01-19T09:50:46.851Z,100073.47
2023-01-19T09:54:01.483Z,100068.75
2023-01-19T09:56:30.223Z,100066.72
2023-01-19T09:58:58.501Z,100066.09
2023-01-19T10:01:46.593Z,100064.47
2023-01-19T10:04:25.508Z,100064.69
2023-01-19T10:07:04.018Z,100064.84
2023-01-19T10:09:47.627Z,100061.47
2023-01-19T10:12:32.788Z,100064.00
2023-01-19T10:15:04.213Z,100062.34
2023-01-19T10:17:44.377Z,100071.00
2023-01-19T10:20:18.062Z,100054.16
2023-01-19T10:22:48.794Z,100070.44
2023-01-19T10:25:20.509Z,100067.88
2023-01-19T10:27:47.820Z,100058.47
2023-01-19T10:30:24.524Z,100067.66
2023-01-19T10:32:51.791Z,100056.41
2023-01-19T10:35:27.260Z,100064.84
2023-01-19T10:37:58.701Z,100054.75
2023-01-19T10:40:47.798Z,100057.41
2023-01-19T10:43:46.492Z,100065.13
2023-01-19T10:46:37.348Z,100063.53
2023-01-19T10:49:05.688Z,100063.75
2023-01-19T10:51:32.757Z,100064.69
2023-01-19T10:54:02.379Z,100053.69
2023-01-19T10:56:35.280Z,100054.63
2023-01-19T10:59:05.895Z,100062.38
2023-01-19T11:01:36.983Z,100061.53
2023-01-19T11:04:27.952Z,100059.63
2023-01-19T11:07:14.016Z,100068.88
2023-01-19T11:09:41.018Z,100064.50
2023-01-19T11:12:16.846Z,100064.63
2023-01-19T11:14:43.781Z,100066.38
2023-01-19T11:17:27.919Z,100065.59
2023-01-19T11:20:03.023Z,100064.78
2023-01-19T11:22:33.974Z,100058.09
2023-01-19T11:25:03.077Z,100057.22
2023-01-19T11:27:32.077Z,100064.03
2023-01-19T11:30:16.983Z,100068.25
2023-01-19T11:32:43.798Z,100066.50
2023-01-19T11:35:32.517Z,100074.41
2023-01-19T11:38:19.570Z,100067.63
2023-01-19T11:40:53.292Z,100071.03
2023-01-19T11:43:23.310Z,100074.41
2023-01-19T11:45:50.638Z,100076.81
2023-01-19T11:48:29.247Z,100081.00
2023-01-19T11:51:00.546Z,100082.59
2023-01-19T11:53:30.823Z,100089.38
2023-01-19T11:56:06.805Z,100083.34
2023-01-19T11:58:39.178Z,100087.34
2023-01-19T12:01:31.436Z,100077.72
2023-01-19T12:03:58.168Z,100078.28
2023-01-19T12:06:34.241Z,100084.00
2023-01-19T12:09:10.566Z,100073.56
2023-01-19T12:12:08.935Z,100066.44
2023-01-19T12:14:43.768Z,100063.56
2023-01-19T12:17:24.959Z,100064.25
2023-01-19T12:20:28.155Z,100064.97
2023-01-19T12:23:17.454Z,100078.66
2023-01-19T12:25:54.950Z,100072.19
2023-01-19T12:28:31.766Z,100071.47
2023-01-19T12:31:01.137Z,100077.41
2023-01-19T12:33:38.502Z,100064.66
2023-01-19T12:36:35.607Z,100067.34
2023-01-19T12:39:04.459Z,100061.59
2023-01-19T12:41:38.932Z,100054.06
2023-01-19T12:44:12.001Z,100056.69
2023-01-19T12:46:43.512Z,100053.06
2023-01-19T12:49:16.295Z,100048.97
2023-01-19T12:51:43.774Z,100051.69
2023-01-19T12:54:23.490Z,100053.41
2023-01-19T12:56:58.619Z,100054.06
2023-01-19T12:59:27.444Z,100054.19
2023-01-19T13:02:22.255Z,100038.22
2023-01-19T13:05:32.507Z,100035.09
2023-01-19T13:08:02.412Z,100042.94
2023-01-19T13:11:03.057Z,100041.91
2023-01-19T13:13:42.297Z,100042.84
2023-01-19T13:16:18.290Z,100047.16
2023-01-19T13:18:45.126Z,100046.22
2023-01-19T13:21:12.623Z,100048.81
2023-01-19T13:23:51.429Z,100050.50
2023-01-19T13:26:21.966Z,100056.38
2023-01-19T13:28:55.700Z,100060.63
2023-01-19T13:31:24.431Z,100055.53
2023-01-19T13:33:55.036Z,100044.38
2023-01-19T13:36:38.480Z,100045.25
2023-01-19T13:39:18.697Z,100052.13
2023-01-19T13:41:47.316Z,100042.91
2023-01-19T13:44:30.339Z,100049.72
2023-01-19T13:46:59.400Z,100051.31
2023-01-19T13:49:36.423Z,100044.59
2023-01-19T13:52:06.283Z,100042.00
2023-01-19T13:54:33.085Z,100043.84
2023-01-19T13:56:59.803Z,100047.28
2023-01-19T13:59:26.594Z,100042.19
2023-01-19T14:01:54.310Z,100033.72
2023-01-19T14:04:30.791Z,100037.94
2023-01-19T14:07:01.623Z,100037.13
2023-01-19T14:09:28.940Z,100044.03
2023-01-19T14:12:05.164Z,100046.63
2023-01-19T14:14:32.693Z,100043.31
2023-01-19T14:16:59.699Z,100051.81
2023-01-19T14:19:26.552Z,100052.72
2023-01-19T14:22:04.331Z,100052.66
2023-01-19T14:24:33.289Z,100052.72
2023-01-19T14:27:10.010Z,100066.25
2023-01-19T14:29:40.555Z,100066.16
2023-01-19T14:32:10.062Z,100066.06
2023-01-19T14:34:42.851Z,100064.31
2023-01-19T14:37:37.471Z,100075.44
2023-01-19T14:40:17.517Z,100076.34
2023-01-19T14:42:50.181Z,100089.28
2023-01-19T14:45:21.371Z,100087.63
2023-01-19T14:48:19.291Z,100087.59
2023-01-19T14:51:02.112Z,100093.47
2023-01-19T14:53:36.699Z,100095.88
2023-01-19T14:56:05.980Z,100103.06
2023-01-19T14:58:34.917Z,100105.44
2023-01-19T15:01:02.846Z,100114.63
2023-01-19T15:03:46.187Z,100107.06
2023-01-19T15:06:20.125Z,100108.81
2023-01-19T15:08:47.378Z,100108.72
2023-01-19T15:11:31.908Z,100118.88
2023-01-19T15:13:59.303Z,100114.66
2023-01-19T15:16:29.143Z,100122.78
2023-01-19T15:18:56.140Z,100131.72
2023-01-19T15:21:23.816Z,100130.13
2023-01-19T15:23:50.797Z,100140.25
2023-01-19T15:26:23.054Z,100133.38
2023-01-19T15:28:50.603Z,100140.63
2023-01-19T15:31:20.727Z,100141.56
2023-01-19T15:33:47.666Z,100145.03
2023-01-19T15:36:18.319Z,100152.88
2023-01-19T15:38:46.046Z,100151.84
2023-01-19T15:41:20.776Z,100159.47
2023-01-19T15:43:49.369Z,100163.72
2023-01-19T15:46:18.784Z,100161.13
2023-01-19T15:48:45.539Z,100169.69
2023-01-19T15:51:17.103Z,100175.53
2023-01-19T15:53:45.207Z,100177.97
2023-01-19T15:56:19.671Z,100177.84
2023-01-19T15:58:46.877Z,100181.09
2023-01-19T16:01:16.201Z,100185.22
2023-01-19T16:03:43.432Z,100183.34
2023-01-19T16:06:11.174Z,100185.78
2023-01-19T16:08:38.512Z,100196.81
2023-01-19T16:11:15.320Z,100198.50
2023-01-19T16:13:46.243Z,100200.84
2023-01-19T16:16:20.985Z,100200.69
2023-01-19T16:18:48.067Z,100203.09
2023-01-19T16:21:14.893Z,100210.63
2023-01-19T16:23:42.047Z,100199.41
2023-01-19T16:26:22.993Z,100217.22
2023-01-19T16:28:49.835Z,100219.78
2023-01-19T16:31:16.738Z,100217.22
2023-01-19T16:33:45.346Z,100218.09
2023-01-19T16:36:42.618Z,100222.31
2023-01-19T16:39:12.907Z,100234.09
2023-01-19T16:41:40.242Z,100240.00
2023-01-19T16:44:07.363Z,100239.75
2023-01-19T16:46:36.853Z,100234.97
2023-01-19T16:49:06.193Z,100241.13
2023-01-19T16:51:33.675Z,100241.81
2023-01-19T16:54:00.505Z,100242.84
2023-01-19T16:56:27.391Z,100251.25
2023-01-19T16:58:58.435Z,100242.69
2023-01-19T17:01:27.386Z,100238.44
2023-01-19T17:03:55.485Z,100237.78
2023-01-19T17:06:23.614Z,100250.50
2023-01-19T17:08:52.031Z,100240.91
2023-01-19T17:11:30.634Z,100245.22
2023-01-19T17:14:06.200Z,100251.66
2023-01-19T17:16:34.283Z,100245.97
2023-01-19T17:19:02.982Z,100244.25
2023-01-19T17:21:29.802Z,100250.25
2023-01-19T17:23:57.959Z,100253.78
2023-01-19T17:26:25.973Z,100251.66
2023-01-19T17:28:52.719Z,100251.06
2023-01-19T17:31:22.024Z,100246.25
2023-01-19T17:33:50.527Z,100250.56
2023-01-19T17:36:22.874Z,100254.63
2023-01-19T17:38:50.292Z,100262.38
2023-01-19T17:41:19.576Z,100267.47
2023-01-19T17:43:47.325Z,100280.88
2023-01-19T17:46:14.144Z,100299.22
2023-01-19T17:48:41.076Z,100293.97
2023-01-19T17:51:11.373Z,100291.28
2023-01-19T17:53:39.978Z,100294.50
2023-01-19T17:56:12.364Z,100300.47
2023-01-19T17:58:39.822Z,100296.66
2023-01-19T18:01:22.113Z,100305.63
2023-01-19T18:03:49.117Z,100303.09
2023-01-19T18:06:16.719Z,100312.72
2023-01-19T18:08:46.280Z,100316.06
2023-01-19T18:11:14.898Z,100322.47
2023-01-19T18:13:46.128Z,100317.56
2023-01-19T18:16:15.943Z,100320.88
2023-01-19T18:18:44.260Z,100325.63
2023-01-19T18:21:14.300Z,100329.75
2023-01-19T18:23:46.012Z,100323.13
2023-01-19T18:26:16.201Z,100330.84
2023-01-19T18:28:43.098Z,100336.09
2023-01-19T18:31:12.128Z,100340.94
2023-01-19T18:33:39.147Z,100336.94
2023-01-19T18:36:06.472Z,100337.75
2023-01-19T18:38:33.672Z,100332.41
2023-01-19T18:41:10.257Z,100337.81
2023-01-19T18:43:37.932Z,100335.72
2023-01-19T18:46:04.982Z,100346.88
2023-01-19T18:48:31.965Z,100347.72
2023-01-19T18:51:03.339Z,100347.69
2023-01-19T18:53:32.245Z,100349.53
2023-01-19T18:56:01.924Z,100353.03
2023-01-19T18:58:30.050Z,100348.22
2023-01-19T19:00:57.421Z,100356.56
2023-01-19T19:03:24.414Z,100357.47
2023-01-19T19:05:53.845Z,100354.91
2023-01-19T19:08:20.917Z,100360.69
2023-01-19T19:10:47.904Z,100364.16
2023-01-19T19:13:16.799Z,100362.50
2023-01-19T19:15:44.470Z,100371.84
2023-01-19T19:18:13.964Z,100368.09
2023-01-19T19:20:43.251Z,100366.00
2023-01-19T19:23:13.011Z,100373.03
2023-01-19T19:25:39.891Z,100375.78
2023-01-19T19:28:07.083Z,100371.41
2023-01-19T19:30:35.700Z,100372.50
2023-01-19T19:33:02.604Z,100374.22
2023-01-19T19:35:29.447Z,100381.41
2023-01-19T19:37:57.827Z,100382.72
2023-01-19T19:40:26.631Z,100391.53
2023-01-19T19:42:53.591Z,100385.09
2023-01-19T19:45:22.285Z,100391.75
2023-01-19T19:48:00.704Z,100393.16
2023-01-19T19:50:28.091Z,100385.47
2023-01-19T19:52:54.914Z,100390.13
2023-01-19T19:55:21.821Z,100391.53
2023-01-19T19:57:48.673Z,100382.09
2023-01-19T20:00:16.216Z,100387.38
2023-01-19T20:02:43.040Z,100388.81
2023-01-19T20:05:10.016Z,100388.50
2023-01-19T20:07:39.133Z,100401.41
2023-01-19T20:10:06.423Z,100384.59
2023-01-19T20:12:33.531Z,100385.47
2023-01-19T20:15:00.440Z,100374.81
2023-01-19T20:17:27.285Z,100371.25
2023-01-19T20:19:54.223Z,100376.81
2023-01-19T20:22:21.106Z,100380.31
2023-01-19T20:24:48.157Z,100382.28
2023-01-19T20:27:15.396Z,100383.81
2023-01-19T20:29:43.204Z,100396.00
2023-01-19T20:32:32.810Z,100396.53
2023-01-19T20:35:00.259Z,100401.81
2023-01-19T20:37:27.369Z,100398.59
2023-01-19T20:39:54.499Z,100399.59
2023-01-19T20:42:21.453Z,100391.84
2023-01-19T20:44:49.777Z,100393.56
2023-01-19T20:47:16.837Z,100401.34
2023-01-19T20:49:44.205Z,100401.00
2023-01-19T20:52:11.249Z,100407.84
2023-01-19T20:54:39.936Z,100405.63
2023-01-19T20:57:06.824Z,100412.84
2023-01-19T20:59:36.952Z,100413.19
2023-01-19T21:02:06.459Z,100414.34
2023-01-19T21:04:33.650Z,100413.34
2023-01-19T21:07:00.485Z,100424.13
2023-01-19T21:09:27.258Z,100417.47
2023-01-19T21:11:55.917Z,100426.53
2023-01-19T21:14:24.392Z,100424.84
2023-01-19T21:16:51.419Z,100425.41
2023-01-19T21:19:18.447Z,100422.91
2023-01-19T21:21:45.306Z,100432.50
2023-01-19T21:24:12.162Z,100430.25
2023-01-19T21:26:39.262Z,100433.25
2023-01-19T21:29:06.056Z,100434.44
2023-01-19T21:31:32.938Z,100443.91
2023-01-19T21:33:59.875Z,100449.22
2023-01-19T21:36:27.006Z,100460.22
2023-01-19T21:39:00.375Z,100474.13
2023-01-19T21:41:28.431Z,100480.41
2023-01-19T21:43:55.319Z,100480.47
2023-01-19T21:46:29.634Z,100486.59
2023-01-19T21:49:01.780Z,100484.53
2023-01-19T21:51:30.305Z,100495.06
2023-01-19T21:53:59.820Z,100500.78
2023-01-19T21:56:44.902Z,100494.28
2023-01-19T21:59:16.068Z,100483.91
2023-01-19T22:01:44.969Z,100478.78
2023-01-19T22:04:12.595Z,100479.56
2023-01-19T22:06:39.753Z,100472.56
2023-01-19T22:09:07.527Z,100472.09
2023-01-19T22:11:34.449Z,100469.50
2023-01-19T22:14:01.317Z,100481.88
2023-01-19T22:16:29.572Z,100477.94
2023-01-19T22:18:59.545Z,100478.38
2023-01-19T22:21:30.432Z,100482.97
2023-01-19T22:23:59.298Z,100484.03
2023-01-19T22:26:27.767Z,100495.34
2023-01-19T22:28:56.606Z,100496.28
2023-01-19T22:31:25.284Z,100496.53
2023-01-19T22:33:53.138Z,100493.25
2023-01-19T22:36:30.548Z,100496.00
2023-01-19T22:38:59.721Z,100495.34
2023-01-19T22:41:42.022Z,100495.44
2023-01-19T22:44:13.122Z,100494.63
2023-01-19T22:46:40.082Z,100499.88
2023-01-19T22:49:08.273Z,100496.66
2023-01-19T22:51:35.918Z,100488.19
2023-01-19T22:54:03.881Z,100488.44
2023-01-19T22:56:32.758Z,100492.41
2023-01-19T22:59:00.302Z,100494.44
2023-01-19T23:01:31.541Z,100492.53
2023-01-19T23:03:58.211Z,100494.94
2023-01-19T23:06:30.629Z,100503.88
2023-01-19T23:09:00.087Z,100506.78
2023-01-19T23:11:29.882Z,100505.91
2023-01-19T23:13:58.156Z,100506.94
2023-01-19T23:16:25.148Z,100514.47
2023-01-19T23:18:56.911Z,100517.34
2023-01-19T23:21:26.426Z,100518.16
2023-01-19T23:23:56.653Z,100516.84
2023-01-19T23:26:24.265Z,100510.66
2023-01-19T23:28:56.533Z,100511.59
2023-01-19T23:31:23.536Z,100517.22
2023-01-19T23:33:52.100Z,100508.66
2023-01-19T23:36:20.451Z,100511.34
2023-01-19T23:38:55.539Z,100519.66
2023-01-19T23:41:23.610Z,100518.25
2023-01-19T23:43:50.794Z,100527.25
2023-01-19T23:46:19.106Z,100531.59
2023-01-19T23:48:46.827Z,100526.19
2023-01-19T23:51:16.603Z,100523.66
2023-01-19T23:53:43.620Z,100528.94
2023-01-19T23:56:33.544Z,100532.25
2023-01-19T23:59:14.773Z,100537.59
